Impacts METAR Board
IDs:

KDEN - Denver Intl, CO, US

Updated at: 2000 UTC 23 Sep 2018
Potential Impact None Slight Moderate High
Time 23/08Z 23/09Z 23/10Z 23/11Z 23/12Z 23/13Z 23/14Z 23/15Z 23/16Z 23/17Z 23/18Z 23/19Z 23/20Z
Temp60 58 57 56 57 60 61 70 76 81 83 86 85
Dewpt33 30 28 26 26 24 25 25 26 22 18 18 20
Altim30.07 30.06 30.06 30.07 30.07 30.07 30.08 30.09 30.09 30.08 30.06 30.02 29.98
VIS10 10 10 10 10 10 10 10 10 10 10 10 10
CIG-- -- -- -- -- -- -- -- -- -- -- -- --
CoverCLRFEWFEWFEWCLRFEWFEWFEWSCTFEWFEWFEWFEW
FltCatVFRVFRVFRVFRVFRVFRVFRVFRVFRVFRVFRVFRVFR
WX--------------------------
WDir210230240230220210220230230270280250160
WSpd9 12 10 10 10 13 11 11 9 5 4 7 11
WGst-- -- -- -- -- -- -- -- -- -- -- -- 16
Raw hourly METARs
KDEN 230753Z 21009KT 10SM CLR 16/01 A3007 RMK AO2 SLP102 T01560006
KDEN 230853Z 23012KT 10SM FEW050 14/M01 A3006 RMK AO2 SLP101 T01441011 56004
KDEN 230953Z 24010KT 10SM FEW050 14/M02 A3006 RMK AO2 SLP102 T01391022
KDEN 231053Z 23010KT 10SM FEW050 13/M03 A3007 RMK AO2 SLP103 T01331033
KDEN 231153Z 22010KT 10SM CLR 14/M03 A3007 RMK AO2 SLP105 T01391033 10189 20133 53001
KDEN 231253Z 21013KT 10SM FEW220 16/M04 A3007 RMK AO2 SLP114 T01561044
KDEN 231353Z 22011KT 10SM FEW220 16/M04 A3008 RMK AO2 SLP123 T01611039
KDEN 231453Z 23011KT 10SM FEW130 FEW220 21/M04 A3009 RMK AO2 SLP113 T02111039 53006
KDEN 231553Z 23009KT 10SM FEW130 SCT200 24/M03 A3009 RMK AO2 SLP116 T02441033
KDEN 231653Z 27005KT 10SM FEW130 FEW200 27/M06 A3008 RMK AO2 SLP108 T02721056
KDEN 231753Z 28004KT 10SM FEW130 FEW200 28/M08 A3006 RMK AO2 SLP095 T02831078 10283 20139 58010
KDEN 231853Z 25007KT 10SM FEW130 FEW200 30/M08 A3002 RMK AO2 SLP081 T03001078
KDEN 231953Z 16011G16KT 10SM FEW130 FEW180 29/M07 A2998 RMK AO2 SLP069 T02941067



Page loaded:  20:23 UTC  |   01:23 PM Pacific  |   02:23 PM Mountain  |   03:23 PM Central  |   04:23 PM Eastern

 

ADVISORIES

FORECASTS

FORECASTS

OBSERVATIONS

USER TOOLS

ABOUT US